Portada
METAR-TAF:

METAR-TAF

Aeroports :

Chiang Rai, Tailàndia

latitud: 19-57-08N, longitud: 099-52-59E, altitud: 390 m

Observació

L'informe es va fer fa 40 minuts, a les 17:00 UTC
Vent 4 kt del Sud
Temperatura 24°C
Humitat 100%
Pressió 1008 hPa
Visibilitat 10 km o més
Escasses núvols a una alçada de 1800 ft
Cel ennuvolat a una alçada de 2500 ft

METAR: VTCT 071700Z 17004KT 9999 FEW018 BKN025 24/24 Q1008 NOSIG

Hora: 00:40 (17:40 UTC)

Pronòstic

L'informe es va fer fa 40 minuts, a les 17:00 UTC
Pronòstic vàlid del 07 a les 18 UTC al 08 a les 24 UTC
Vent 5 kt del Sud/Sud-Oest
Visibilitat 10 km o més
Cel ennuvolat a una alçada de 2500 ft
Temporalment
l' 08 a les 08 UTC al 08 a les 14 UTC
Vent 15 kt del Sud amb ràfegues de 30 kt
Visibilitat: 4000 m
Escasses núvols a una alçada de 1800 ft, Cumulonimbus.
Cel ennuvolat a una alçada de 2500 ft
tempesta, pluja

TAF: VTCT 071700Z 0718/0824 20005KT 9999 BKN025 TEMPO 0808/0814 18015G30KT 4000 TSRA FEW018CB BKN025

Observacions i pronòstics meteorològics de més de 4000 aeroports (METAR i TAF).

Les estacions disponibles són els punts grocs i vermells al mapa.

Posi el ratolí al punt desitjat per veure el nom de l'estació.

Feu clic per veure les observacions i els pronòstics meteorològics.

Per canviar el mapa: feu clic els botons verds amb una creu de color negre per apropar; al botó verd amb un guió per allunyar la imatge; o en les fletxes verdes per a mapes adjacents.


METAR-TAF: